createdAt,value
2022-10-27T00:03:12.384Z,11.80
2022-10-27T00:18:13.855Z,12.80
2022-10-27T00:33:13.924Z,11.40
2022-10-27T00:48:14.554Z,13.70
2022-10-27T01:03:14.657Z,13.40
2022-10-27T01:18:14.272Z,11.90
2022-10-27T01:33:14.344Z,10.90
2022-10-27T01:48:14.930Z,12.00
2022-10-27T02:03:14.533Z,11.10
2022-10-27T02:18:14.651Z,10.90
2022-10-27T02:33:15.197Z,10.40
2022-10-27T02:48:14.851Z,10.60
2022-10-27T03:03:14.973Z,11.40
2022-10-27T03:18:15.060Z,12.40
2022-10-27T03:33:16.653Z,11.50
2022-10-27T03:48:16.809Z,16.00
2022-10-27T04:03:17.367Z,12.30
2022-10-27T04:18:18.020Z,14.40
2022-10-27T04:33:19.078Z,12.00
2022-10-27T04:48:19.683Z,16.50
2022-10-27T05:03:20.752Z,15.60
2022-10-27T05:18:20.912Z,15.10
2022-10-27T05:33:21.100Z,14.10
2022-10-27T05:48:21.685Z,16.90
2022-10-27T06:03:22.259Z,21.30
2022-10-27T06:18:21.889Z,24.30
2022-10-27T06:33:21.988Z,19.00
2022-10-27T06:48:22.109Z,32.50
2022-10-27T07:03:22.203Z,27.40
2022-10-27T07:18:22.895Z,28.70
2022-10-27T07:33:23.501Z,31.20
2022-10-27T07:48:23.518Z,30.20
2022-10-27T08:03:24.146Z,26.30
2022-10-27T08:18:25.247Z,24.40
2022-10-27T08:33:25.343Z,14.80
2022-10-27T08:48:25.430Z,9.40
2022-10-27T09:03:25.534Z,7.30
2022-10-27T09:18:26.139Z,6.10
2022-10-27T09:33:25.723Z,6.20
2022-10-27T09:48:27.328Z,4.90
2022-10-27T10:03:28.097Z,4.50
2022-10-27T10:18:29.167Z,3.90
2022-10-27T10:33:29.245Z,3.60
2022-10-27T10:48:29.844Z,2.80
2022-10-27T11:03:29.933Z,2.50
2022-10-27T11:18:30.092Z,2.50
2022-10-27T11:33:30.100Z,1.50
2022-10-27T11:48:30.238Z,1.80
2022-10-27T12:03:30.777Z,1.20
2022-10-27T12:18:30.584Z,1.20
2022-10-27T12:33:31.167Z,1.40
2022-10-27T12:48:31.798Z,1.40
2022-10-27T13:03:32.971Z,1.80
2022-10-27T13:18:32.988Z,1.50
2022-10-27T13:33:33.045Z,1.60
2022-10-27T13:48:33.171Z,1.60
2022-10-27T14:03:33.368Z,1.90
2022-10-27T14:18:33.870Z,1.80
2022-10-27T14:33:33.441Z,1.80
2022-10-27T14:48:33.547Z,1.80
2022-10-27T15:03:33.691Z,1.60
2022-10-27T15:18:34.213Z,1.80
2022-10-27T15:33:34.335Z,1.90
2022-10-27T15:48:34.900Z,1.80
2022-10-27T16:03:34.972Z,2.50
2022-10-27T16:18:35.173Z,2.40
2022-10-27T16:33:35.226Z,3.70
2022-10-27T16:48:37.933Z,3.80
2022-10-27T17:03:38.942Z,3.90
2022-10-27T17:18:39.563Z,4.90
2022-10-27T17:33:40.667Z,5.80
2022-10-27T17:48:41.770Z,6.50
2022-10-27T18:03:42.396Z,5.80
2022-10-27T18:18:42.407Z,7.30
2022-10-27T18:33:42.990Z,7.40
2022-10-27T18:48:42.587Z,8.60
2022-10-27T19:03:43.208Z,8.50
2022-10-27T19:18:43.297Z,10.70
2022-10-27T19:33:43.396Z,9.90
2022-10-27T19:48:43.993Z,10.20
2022-10-27T20:03:44.101Z,11.00
2022-10-27T20:18:44.168Z,12.10
2022-10-27T20:33:44.275Z,12.40
2022-10-27T20:48:44.387Z,13.10
2022-10-27T21:03:44.489Z,14.40
2022-10-27T21:18:45.122Z,14.60
2022-10-27T21:33:46.213Z,14.00
2022-10-27T21:48:47.266Z,12.50
2022-10-27T22:03:46.877Z,13.30
2022-10-27T22:18:46.961Z,11.50
2022-10-27T22:33:47.085Z,10.30
2022-10-27T22:48:47.714Z,8.80
2022-10-27T23:03:47.320Z,7.60
2022-10-27T23:18:47.377Z,7.50
2022-10-27T23:33:47.517Z,6.50
2022-10-27T23:48:47.561Z,6.30
